Aurora, WI

3:16 PM CST on February 08, 2016 (GMT -0600)
N Gilman Dr | | Change Station
CLOSE
Current Station
Personal Weather Station
Location: Gilman, WI
Elevation: 1237 ft
Nearby Weather Stations

Elev 1237 ft 45.17 °N, 90.82 °W | Updated 39 seconds ago

Snow
Snow
14.9 °F
Feels Like 15 °F
N
2.0
Wind Variable Wind from NNW
Gusts 7.0 mph

Today
High -- | Low -- °F
--% Chance of Precip.
Yesterday
High -- | Low -- °F
Precip. -- in
Pressure 29.82 in
Visibility 4.0 miles
Clouds Scattered Clouds 1500 ft
Overcast 2200 ft
Windchill 15 °F
Dew Point 6 °F
Humidity 67%
Rainfall 0.00 in
Snow Depth Not available.
7:15 AM 5:20 PM
New Moon, 0% visible
METAR KRCX 082055Z AUTO 32013G17KT 4SM -SN SCT015 OVC022 M09/M13 A2982 RMK AO2 T10901128
Pressure 29.82 in
Visibility 4.0 miles
Clouds Scattered Clouds 1500 ft
Overcast 2200 ft
Windchill 15 °F
Dew Point 6 °F
Humidity 67%
Rainfall 0.00 in
Snow Depth Not available.
7:15 AM 5:20 PM
New Moon, 0% visible
METAR KRCX 082055Z AUTO 32013G17KT 4SM -SN SCT015 OVC022 M09/M13 A2982 RMK AO2 T10901128

10-Day Weather Forecast

Almanac

Astronomy

Feb. 08, 2016 Rise Set
Actual Time
Civil Twilight
Nautical Twilight
Astronomical Twilight
Moon
Length of Visible Light
Length of Day
Tomorrow will be .
, % of the Moon is Illuminated

Today's Extremes

State Highs State Lows

Community

WunderPhotos

Upload Photos

1,891,516 photos uploaded!

WunderBlog® & News

Nearby

Air Quality

  Air Quality AQ Index Pollutant
Not available.

Snow Depth

Station Depth Elevation

Earthquake Activity

City Distance Mag. Time & Date
Minimum magnitude displayed is 2.5.

Coastal Water Temperatures

Place Temperature

Stations

Nearby Weather Stations

Station Location Temp. Windchill Dew Point Humidity Wind Precip. Elev Updated Type
                   

Watches & Warnings

There are currently no watches in effect.